South Daytona Beach, Florida
Current Conditions -  °F | °C
As of 11:53 AM on Saturday 25 Oct 2014 (Local Time) from KDAB Reporting Station
Few Clouds Few Clouds  
Wind Chill: 76°   Ceiling: Unl
Heat Index: 76°   Visibility: 10mi
Dew Point: 56°   Wind: 8mph
Humidity: 50%   Direction: 340°NNW
Pressure: 30.01"   Gusts: NA
Location:  29.1638°N, 81.0283°W
Report Text: KDAB 251553Z 34007KT 330V030 10SM FEW035 24/13 A3001 RMK AO2 SLP160 T02440133
Loading
Personal Weather Stations






























Interactive Weather Map
Tropical Storm Tracking
New forecast layout! Learn more

10-Day Weather Forecast

Advertisements
Track Severe Weather on mobile